Search for airport 
image banner adimage banner ad
image banner ad

DABS - Tebessa / Cheikh Larbi Tebessi

Located in Tebessa, Algeria

ICAO - DABS, IATA - TEE

Data provided by Airmate  

General information

Coordinates: N35°25'57" E8°7'32"
Elevation is 2657 feet MSL.
 
Rated:
View ratings: [VIEW]


View others Airports in Tébessa Province

Operational data

Open for public use
Current time UTC:
Current local time:
Weather
METAR: DABS 122300Z 06001KT CAVOK 27/08 Q1021
TAF: TAF DABS 121700Z 1218/1318 34012KT 9999 FEW030 PROB30 TEMPO 1218/1220 02015G25KT FEW026TCU BECMG 1219/1222 12008KT BECMG 1306/1309 30008KT TEMPO 1313/1318 5000 -TSRA FEW030CB BKN040
View NOTAMs / SUP AIP / TFR affecting this airport [VIEW]
Communications frequencies: [VIEW]

Runways:

RWY identifierQFULength (ft)Width (ft)SurfaceLDA (ft)
11113°9843148ASP
29293°9843148
12124°787498
30304°787498

Airport contact information

Address: Tebessa Algeria

Satellite view of DABS